METAR Data
IDs: Format: Raw Decoded Include TAF

Data at: 0714 UTC 07 Dec 2022

KSLE 070656Z AUTO 15004KT 7SM OVC007 04/03 A3021 RMK AO2 SLP229 T00440028
KSLE 070556Z AUTO 15003KT 8SM OVC009 05/03 A3020 RMK AO2 SLP228 T00500033 10067 20050 51008
KSLE 070456Z AUTO 00000KT 10SM OVC012 05/03 A3020 RMK AO2 SLP226 T00500028
KSLE 070356Z 07003KT 9SM OVC011 06/03 A3019 RMK AO2 SLP222 T00560028
KSLE 070256Z 00000KT 9SM OVC011 06/03 A3018 RMK AO2 SLP220 T00560033 53004
KSLE 070156Z 35005KT 10SM OVC011 06/03 A3018 RMK AO2 SLP219 T00560033
KSLE 070056Z 17003KT 6SM HZ BKN013 OVC049 06/03 A3017 RMK AO2 SLP216 T00610033
KSLE 062356Z 14004KT 10SM OVC050 07/04 A3016 RMK AO2 SLP214 T00670039 10072 20039 56000
KSLE 062256Z 13004KT 10SM OVC049 07/04 A3016 RMK AO2 SLP214 T00720039
KSLE 062156Z 18003KT 10SM FEW011 OVC050 07/03 A3016 RMK AO2 SLP213 T00720033
KSLE 062056Z 00000KT 10SM FEW011 OVC050 07/03 A3016 RMK AO2 SLP215 T00670028 58001
KSLE 061956Z 00000KT 10SM FEW011 OVC050 06/03 A3017 RMK AO2 SLP218 T00560028
KSLE 061856Z 00000KT 10SM FEW008 OVC050 04/02 A3017 RMK AO2 SLP219 T00440022
KSLE 061756Z 00000KT 10SM FEW007 OVC050 04/02 A3017 RMK AO2 SLP217 T00390017 10039 20022 53008
KSLE 061656Z 00000KT 10SM FEW008 OVC050 03/01 A3015 RMK AO2 SLP212 T00280011
KSLE 061556Z 00000KT 9SM SCT005 BKN035 OVC050 02/01 A3014 RMK AO2 SLP209 T00220011
KSLE 061456Z 15003KT 9SM BKN006 OVC049 02/01 A3013 RMK AO2 SLP206 T00220011 53008
KSLE 061437Z AUTO 15003KT 9SM BKN006 OVC049 02/01 A3013 RMK AO2 T00220011
KSLE 061405Z AUTO 14003KT 10SM SCT006 OVC049 02/01 A3012 RMK AO2 T00220006
KSLE 061356Z AUTO 15003KT 10SM BKN006 OVC050 02/01 A3012 RMK AO2 SLP201 T00220011
KSLE 061338Z AUTO 00000KT 10SM BKN006 OVC050 02/01 A3012 RMK AO2 T00220006
KSLE 061324Z AUTO 00000KT 10SM SCT006 OVC050 02/01 A3012 RMK AO2 T00220006
KSLE 061317Z AUTO 00000KT 10SM BKN005 OVC050 02/01 A3012 RMK AO2 T00220011
KSLE 061256Z AUTO 00000KT 10SM SCT005 OVC050 02/01 A3011 RMK AO2 SLP198 T00220011
KSLE 061251Z AUTO 17003KT 10SM SCT005 OVC049 02/01 A3011 RMK AO2
KSLE 061156Z AUTO 15003KT 10SM BKN006 OVC050 02/01 A3011 RMK AO2 SLP198 T00220011 10022 20017 50003
KSLE 061138Z AUTO 14003KT 10SM BKN006 OVC049 02/01 A3011 RMK AO2 T00220011
KSLE 061056Z AUTO 16003KT 10SM FEW007 OVC050 02/01 A3012 RMK AO2 SLP201 T00220011
KSLE 061009Z AUTO 15003KT 9SM SCT005 OVC048 02/01 A3011 RMK AO2 T00220011
KSLE 060956Z AUTO 16003KT 9SM BKN005 OVC048 02/01 A3011 RMK AO2 SLP196 T00220006
KSLE 060856Z AUTO 16003KT 9SM OVC005 02/00 A3010 RMK AO2 SLP195 T00170000 51006
KSLE 060832Z AUTO 00000KT 9SM OVC005 02/01 A3010 RMK AO2 T00170011
KSLE 060756Z AUTO 16004KT 7SM OVC004 02/01 A3010 RMK AO2 SLP193 T00170011 400330006
KSLE 060746Z AUTO 16004KT 7SM OVC004 02/01 A3010 RMK AO2 T00170011
KSLE 060711Z AUTO 15006KT 8SM OVC005 02/01 A3010 RMK AO2 T00170006
KSLE 060656Z AUTO 14005KT 7SM OVC004 02/01 A3010 RMK AO2 SLP195 T00170006
KSLE 060556Z AUTO 14005KT 5SM BR OVC004 02/01 A3008 RMK AO2 SLP188 T00170006 10028 20017 51013
KSLE 060549Z AUTO 14004KT 5SM BR OVC004 02/01 A3008 RMK AO2 T00170006
KSLE 060503Z AUTO 18005KT 8SM OVC005 02/01 A3007 RMK AO2 T00220011
KSLE 060456Z AUTO 18005KT 2SM BR OVC005 02/01 A3007 RMK AO2 SLP184 T00220011
KSLE 060436Z AUTO 20005KT 2SM BR OVC005 02/01 A3007 RMK AO2 T00220011
KSLE 060356Z 18005KT 2SM BR OVC004 02/02 A3006 RMK AO2 SLP181 T00220017
KSLE 060258Z 15005KT 2SM BR OVC003 02/02 A3004 RMK AO2 T00220017
KSLE 060256Z 15005KT 2SM BR OVC005 02/02 A3004 RMK AO2 SLP175 T00220017 52009
KSLE 060156Z 15005KT 2SM BR OVC005 03/02 A3004 RMK AO2 SLP173 T00280017
KSLE 060056Z 14005KT 6SM BR OVC008 03/01 A3002 RMK AO2 SLP169 T00280011
KSLE 052356Z 12004KT 6SM BR OVC008 03/01 A3002 RMK AO2 SLP166 T00280006 10033 20011 53003
KSLE 052256Z 00000KT 3SM BR OVC008 03/01 A3001 RMK AO2 SLP165 T00280006
KSLE 052156Z 00000KT 3SM BR OVC007 02/01 A3001 RMK AO2 SLP163 T00220006
KSLE 052056Z 00000KT 2 1/2SM BR OVC006 03/01 A3001 RMK AO2 SLP163 T00280006 58007
KSLE 051956Z 33004KT 1 1/2SM BR OVC005 02/01 A3001 RMK AO2 SLP165 T00220006
KSLE 051931Z 02003KT 1 1/2SM BR OVC005 02/01 A3002 RMK AO2 T00170006